sensor_id;sensor_type;location;lat;lon;timestamp;P1;durP1;ratioP1;P2;durP2;ratioP2
22184;SDS011;11258;52.516;13.318;2023-10-19T00:01:10;11.33;;;7.50;;
22184;SDS011;11258;52.516;13.318;2023-10-19T00:03:36;14.00;;;7.80;;
22184;SDS011;11258;52.516;13.318;2023-10-19T00:06:02;15.07;;;7.70;;
22184;SDS011;11258;52.516;13.318;2023-10-19T00:08:30;11.90;;;6.97;;
22184;SDS011;11258;52.516;13.318;2023-10-19T00:11:06;14.37;;;7.63;;
22184;SDS011;11258;52.516;13.318;2023-10-19T00:13:32;13.50;;;7.87;;
22184;SDS011;11258;52.516;13.318;2023-10-19T00:16:01;15.17;;;7.77;;
22184;SDS011;11258;52.516;13.318;2023-10-19T00:18:32;11.53;;;6.37;;
22184;SDS011;11258;52.516;13.318;2023-10-19T00:20:59;13.30;;;7.27;;
22184;SDS011;11258;52.516;13.318;2023-10-19T00:23:43;13.97;;;7.13;;
22184;SDS011;11258;52.516;13.318;2023-10-19T00:26:12;14.43;;;7.83;;
22184;SDS011;11258;52.516;13.318;2023-10-19T00:28:45;13.97;;;7.67;;
22184;SDS011;11258;52.516;13.318;2023-10-19T00:31:14;14.43;;;8.30;;
22184;SDS011;11258;52.516;13.318;2023-10-19T00:33:40;15.80;;;8.47;;
22184;SDS011;11258;52.516;13.318;2023-10-19T00:36:06;13.77;;;8.80;;
22184;SDS011;11258;52.516;13.318;2023-10-19T00:38:36;13.40;;;7.50;;
22184;SDS011;11258;52.516;13.318;2023-10-19T00:41:06;14.37;;;8.17;;
22184;SDS011;11258;52.516;13.318;2023-10-19T00:43:36;15.17;;;9.07;;
22184;SDS011;11258;52.516;13.318;2023-10-19T00:46:08;15.83;;;7.80;;
22184;SDS011;11258;52.516;13.318;2023-10-19T00:48:53;11.17;;;7.53;;
22184;SDS011;11258;52.516;13.318;2023-10-19T00:51:45;16.70;;;7.93;;
22184;SDS011;11258;52.516;13.318;2023-10-19T00:54:17;14.97;;;7.87;;
22184;SDS011;11258;52.516;13.318;2023-10-19T00:56:58;13.43;;;8.33;;
22184;SDS011;11258;52.516;13.318;2023-10-19T00:59:31;15.43;;;7.60;;
22184;SDS011;11258;52.516;13.318;2023-10-19T01:02:00;16.47;;;8.33;;
22184;SDS011;11258;52.516;13.318;2023-10-19T01:04:55;12.37;;;8.10;;
22184;SDS011;11258;52.516;13.318;2023-10-19T01:07:26;17.23;;;8.77;;
22184;SDS011;11258;52.516;13.318;2023-10-19T01:09:57;12.53;;;8.00;;
22184;SDS011;11258;52.516;13.318;2023-10-19T01:12:24;12.27;;;7.67;;
22184;SDS011;11258;52.516;13.318;2023-10-19T01:17:49;13.80;;;8.37;;
22184;SDS011;11258;52.516;13.318;2023-10-19T01:20:19;13.27;;;8.07;;
22184;SDS011;11258;52.516;13.318;2023-10-19T01:22:54;14.07;;;7.30;;
22184;SDS011;11258;52.516;13.318;2023-10-19T01:28:23;14.37;;;7.67;;
22184;SDS011;11258;52.516;13.318;2023-10-19T01:31:19;14.70;;;8.43;;
22184;SDS011;11258;52.516;13.318;2023-10-19T01:33:59;15.40;;;7.50;;
22184;SDS011;11258;52.516;13.318;2023-10-19T01:36:32;14.07;;;8.37;;
22184;SDS011;11258;52.516;13.318;2023-10-19T01:39:07;17.30;;;8.10;;
22184;SDS011;11258;52.516;13.318;2023-10-19T01:41:36;16.70;;;8.83;;
22184;SDS011;11258;52.516;13.318;2023-10-19T01:44:03;13.67;;;8.30;;
22184;SDS011;11258;52.516;13.318;2023-10-19T01:46:32;16.20;;;8.60;;
22184;SDS011;11258;52.516;13.318;2023-10-19T01:49:00;14.80;;;8.17;;
22184;SDS011;11258;52.516;13.318;2023-10-19T01:51:30;13.67;;;8.27;;
22184;SDS011;11258;52.516;13.318;2023-10-19T01:54:03;16.93;;;8.63;;
22184;SDS011;11258;52.516;13.318;2023-10-19T01:56:31;16.10;;;9.00;;
22184;SDS011;11258;52.516;13.318;2023-10-19T01:59:00;14.23;;;7.83;;
22184;SDS011;11258;52.516;13.318;2023-10-19T02:01:26;14.93;;;8.90;;
22184;SDS011;11258;52.516;13.318;2023-10-19T02:03:52;16.10;;;8.07;;
22184;SDS011;11258;52.516;13.318;2023-10-19T02:06:22;20.03;;;8.80;;
22184;SDS011;11258;52.516;13.318;2023-10-19T02:09:00;16.50;;;9.63;;
22184;SDS011;11258;52.516;13.318;2023-10-19T02:11:34;18.43;;;9.43;;
22184;SDS011;11258;52.516;13.318;2023-10-19T02:14:03;16.50;;;8.83;;
22184;SDS011;11258;52.516;13.318;2023-10-19T02:16:36;15.00;;;8.57;;
22184;SDS011;11258;52.516;13.318;2023-10-19T02:19:03;18.87;;;9.07;;
22184;SDS011;11258;52.516;13.318;2023-10-19T02:21:28;21.80;;;10.30;;
22184;SDS011;11258;52.516;13.318;2023-10-19T02:23:55;15.13;;;9.13;;
22184;SDS011;11258;52.516;13.318;2023-10-19T02:26:22;20.60;;;9.03;;
22184;SDS011;11258;52.516;13.318;2023-10-19T02:28:50;17.70;;;8.90;;
22184;SDS011;11258;52.516;13.318;2023-10-19T02:31:16;16.67;;;9.30;;
22184;SDS011;11258;52.516;13.318;2023-10-19T02:33:50;15.53;;;8.93;;
22184;SDS011;11258;52.516;13.318;2023-10-19T02:36:30;21.10;;;10.07;;
22184;SDS011;11258;52.516;13.318;2023-10-19T02:38:57;17.10;;;9.07;;
22184;SDS011;11258;52.516;13.318;2023-10-19T02:41:24;16.97;;;9.07;;
22184;SDS011;11258;52.516;13.318;2023-10-19T02:43:52;17.00;;;9.40;;
22184;SDS011;11258;52.516;13.318;2023-10-19T02:46:28;14.53;;;8.53;;
22184;SDS011;11258;52.516;13.318;2023-10-19T02:48:54;18.33;;;8.77;;
22184;SDS011;11258;52.516;13.318;2023-10-19T02:51:20;16.53;;;9.53;;
22184;SDS011;11258;52.516;13.318;2023-10-19T02:53:46;16.70;;;9.07;;
22184;SDS011;11258;52.516;13.318;2023-10-19T02:58:40;16.50;;;9.63;;
22184;SDS011;11258;52.516;13.318;2023-10-19T03:01:17;17.43;;;8.80;;
22184;SDS011;11258;52.516;13.318;2023-10-19T03:03:50;19.00;;;9.07;;
22184;SDS011;11258;52.516;13.318;2023-10-19T03:06:21;17.83;;;8.40;;
22184;SDS011;11258;52.516;13.318;2023-10-19T03:08:48;21.53;;;10.37;;
22184;SDS011;11258;52.516;13.318;2023-10-19T03:11:22;15.23;;;8.17;;
22184;SDS011;11258;52.516;13.318;2023-10-19T03:13:52;18.77;;;9.40;;
22184;SDS011;11258;52.516;13.318;2023-10-19T03:16:22;16.80;;;9.47;;
22184;SDS011;11258;52.516;13.318;2023-10-19T03:18:48;16.33;;;8.57;;
22184;SDS011;11258;52.516;13.318;2023-10-19T03:21:15;16.20;;;9.80;;
22184;SDS011;11258;52.516;13.318;2023-10-19T03:23:41;16.07;;;9.07;;
22184;SDS011;11258;52.516;13.318;2023-10-19T03:26:07;16.83;;;8.57;;
22184;SDS011;11258;52.516;13.318;2023-10-19T03:28:43;16.37;;;9.67;;
22184;SDS011;11258;52.516;13.318;2023-10-19T03:31:10;17.37;;;9.23;;
22184;SDS011;11258;52.516;13.318;2023-10-19T03:33:43;15.53;;;8.17;;
22184;SDS011;11258;52.516;13.318;2023-10-19T03:36:18;16.67;;;8.80;;
22184;SDS011;11258;52.516;13.318;2023-10-19T03:38:45;18.00;;;9.93;;
22184;SDS011;11258;52.516;13.318;2023-10-19T03:41:11;19.30;;;9.47;;
22184;SDS011;11258;52.516;13.318;2023-10-19T03:43:36;16.77;;;9.83;;
22184;SDS011;11258;52.516;13.318;2023-10-19T03:46:05;19.53;;;9.37;;
22184;SDS011;11258;52.516;13.318;2023-10-19T03:48:44;18.07;;;9.23;;
22184;SDS011;11258;52.516;13.318;2023-10-19T03:51:11;17.83;;;8.80;;
22184;SDS011;11258;52.516;13.318;2023-10-19T03:53:39;16.67;;;9.13;;
22184;SDS011;11258;52.516;13.318;2023-10-19T03:56:09;18.60;;;8.87;;
22184;SDS011;11258;52.516;13.318;2023-10-19T03:58:36;16.70;;;9.37;;
22184;SDS011;11258;52.516;13.318;2023-10-19T04:01:04;17.57;;;9.33;;
22184;SDS011;11258;52.516;13.318;2023-10-19T04:03:30;20.77;;;10.07;;
22184;SDS011;11258;52.516;13.318;2023-10-19T04:05:56;17.40;;;10.03;;
22184;SDS011;11258;52.516;13.318;2023-10-19T04:08:25;18.63;;;10.53;;
22184;SDS011;11258;52.516;13.318;2023-10-19T04:10:51;18.93;;;10.60;;
22184;SDS011;11258;52.516;13.318;2023-10-19T04:13:34;18.10;;;9.17;;
22184;SDS011;11258;52.516;13.318;2023-10-19T04:16:02;19.83;;;9.73;;
22184;SDS011;11258;52.516;13.318;2023-10-19T04:18:28;17.10;;;9.73;;
22184;SDS011;11258;52.516;13.318;2023-10-19T04:20:54;18.13;;;10.60;;
22184;SDS011;11258;52.516;13.318;2023-10-19T04:23:22;21.53;;;10.50;;
22184;SDS011;11258;52.516;13.318;2023-10-19T04:25:52;17.97;;;10.40;;
22184;SDS011;11258;52.516;13.318;2023-10-19T04:28:29;20.83;;;10.87;;
22184;SDS011;11258;52.516;13.318;2023-10-19T04:30:56;19.87;;;10.87;;
22184;SDS011;11258;52.516;13.318;2023-10-19T04:33:27;20.87;;;10.13;;
22184;SDS011;11258;52.516;13.318;2023-10-19T04:35:54;19.70;;;10.50;;
22184;SDS011;11258;52.516;13.318;2023-10-19T04:38:22;17.13;;;9.67;;
22184;SDS011;11258;52.516;13.318;2023-10-19T04:40:48;24.03;;;10.80;;
22184;SDS011;11258;52.516;13.318;2023-10-19T04:43:14;18.60;;;10.83;;
22184;SDS011;11258;52.516;13.318;2023-10-19T04:45:41;20.50;;;10.03;;
22184;SDS011;11258;52.516;13.318;2023-10-19T04:48:07;21.23;;;10.33;;
22184;SDS011;11258;52.516;13.318;2023-10-19T04:50:32;20.00;;;10.80;;
22184;SDS011;11258;52.516;13.318;2023-10-19T04:52:58;15.23;;;9.27;;
22184;SDS011;11258;52.516;13.318;2023-10-19T04:55:24;22.23;;;11.23;;
22184;SDS011;11258;52.516;13.318;2023-10-19T04:57:50;20.17;;;10.93;;
22184;SDS011;11258;52.516;13.318;2023-10-19T05:00:16;18.20;;;10.07;;
22184;SDS011;11258;52.516;13.318;2023-10-19T05:02:45;23.27;;;11.17;;
22184;SDS011;11258;52.516;13.318;2023-10-19T05:05:10;23.07;;;11.20;;
22184;SDS011;11258;52.516;13.318;2023-10-19T05:07:38;19.90;;;11.70;;
22184;SDS011;11258;52.516;13.318;2023-10-19T05:10:04;18.23;;;10.70;;
22184;SDS011;11258;52.516;13.318;2023-10-19T05:12:30;17.63;;;9.70;;
22184;SDS011;11258;52.516;13.318;2023-10-19T05:14:56;19.47;;;9.77;;
22184;SDS011;11258;52.516;13.318;2023-10-19T05:17:21;21.87;;;11.27;;
22184;SDS011;11258;52.516;13.318;2023-10-19T05:19:48;20.63;;;11.57;;
22184;SDS011;11258;52.516;13.318;2023-10-19T05:22:14;21.67;;;11.73;;
22184;SDS011;11258;52.516;13.318;2023-10-19T05:24:41;21.40;;;11.73;;
22184;SDS011;11258;52.516;13.318;2023-10-19T05:27:07;21.90;;;11.87;;
22184;SDS011;11258;52.516;13.318;2023-10-19T05:29:34;24.03;;;12.27;;
22184;SDS011;11258;52.516;13.318;2023-10-19T05:32:01;24.07;;;11.13;;
22184;SDS011;11258;52.516;13.318;2023-10-19T05:34:28;22.50;;;12.47;;
22184;SDS011;11258;52.516;13.318;2023-10-19T05:36:56;21.97;;;11.97;;
22184;SDS011;11258;52.516;13.318;2023-10-19T05:39:24;21.63;;;10.97;;
22184;SDS011;11258;52.516;13.318;2023-10-19T05:41:53;23.63;;;11.83;;
22184;SDS011;11258;52.516;13.318;2023-10-19T05:44:19;22.53;;;12.00;;
22184;SDS011;11258;52.516;13.318;2023-10-19T05:46:46;20.87;;;11.50;;
22184;SDS011;11258;52.516;13.318;2023-10-19T05:49:12;20.40;;;11.53;;
22184;SDS011;11258;52.516;13.318;2023-10-19T05:51:41;21.07;;;11.67;;
22184;SDS011;11258;52.516;13.318;2023-10-19T05:54:09;29.87;;;12.73;;
22184;SDS011;11258;52.516;13.318;2023-10-19T05:56:35;25.20;;;13.07;;
22184;SDS011;11258;52.516;13.318;2023-10-19T05:59:01;25.60;;;13.20;;
22184;SDS011;11258;52.516;13.318;2023-10-19T06:01:27;23.00;;;11.77;;
22184;SDS011;11258;52.516;13.318;2023-10-19T06:03:53;21.77;;;12.37;;
22184;SDS011;11258;52.516;13.318;2023-10-19T06:06:20;24.87;;;12.27;;
22184;SDS011;11258;52.516;13.318;2023-10-19T06:08:46;27.27;;;12.37;;
22184;SDS011;11258;52.516;13.318;2023-10-19T06:11:12;23.87;;;12.67;;
22184;SDS011;11258;52.516;13.318;2023-10-19T06:13:38;22.77;;;12.10;;
22184;SDS011;11258;52.516;13.318;2023-10-19T06:16:04;22.93;;;12.63;;
22184;SDS011;11258;52.516;13.318;2023-10-19T06:18:30;23.53;;;13.53;;
22184;SDS011;11258;52.516;13.318;2023-10-19T06:20:56;22.93;;;12.43;;
22184;SDS011;11258;52.516;13.318;2023-10-19T06:23:22;27.73;;;13.93;;
22184;SDS011;11258;52.516;13.318;2023-10-19T06:25:48;26.90;;;13.80;;
22184;SDS011;11258;52.516;13.318;2023-10-19T06:28:16;24.93;;;13.67;;
22184;SDS011;11258;52.516;13.318;2023-10-19T06:30:42;26.37;;;13.33;;
22184;SDS011;11258;52.516;13.318;2023-10-19T06:33:09;24.73;;;13.10;;
22184;SDS011;11258;52.516;13.318;2023-10-19T06:35:35;24.63;;;12.50;;
22184;SDS011;11258;52.516;13.318;2023-10-19T06:38:02;23.07;;;14.20;;
22184;SDS011;11258;52.516;13.318;2023-10-19T06:40:29;28.73;;;12.83;;
22184;SDS011;11258;52.516;13.318;2023-10-19T06:42:56;27.67;;;13.50;;
22184;SDS011;11258;52.516;13.318;2023-10-19T06:45:22;28.23;;;14.50;;
22184;SDS011;11258;52.516;13.318;2023-10-19T06:47:50;27.50;;;13.80;;
22184;SDS011;11258;52.516;13.318;2023-10-19T06:50:17;29.97;;;13.40;;
22184;SDS011;11258;52.516;13.318;2023-10-19T06:52:44;27.40;;;14.03;;
22184;SDS011;11258;52.516;13.318;2023-10-19T06:55:12;26.30;;;13.63;;
22184;SDS011;11258;52.516;13.318;2023-10-19T06:57:42;29.80;;;14.40;;
22184;SDS011;11258;52.516;13.318;2023-10-19T07:00:09;25.07;;;12.73;;
22184;SDS011;11258;52.516;13.318;2023-10-19T07:02:42;25.90;;;13.20;;
22184;SDS011;11258;52.516;13.318;2023-10-19T07:05:09;27.77;;;13.60;;
22184;SDS011;11258;52.516;13.318;2023-10-19T07:07:36;30.50;;;13.73;;
22184;SDS011;11258;52.516;13.318;2023-10-19T07:10:05;29.03;;;13.57;;
22184;SDS011;11258;52.516;13.318;2023-10-19T07:12:31;23.93;;;13.50;;
22184;SDS011;11258;52.516;13.318;2023-10-19T07:14:57;25.37;;;12.90;;
22184;SDS011;11258;52.516;13.318;2023-10-19T07:17:26;26.20;;;12.93;;
22184;SDS011;11258;52.516;13.318;2023-10-19T07:19:52;24.20;;;14.77;;
22184;SDS011;11258;52.516;13.318;2023-10-19T07:22:18;26.13;;;13.87;;
22184;SDS011;11258;52.516;13.318;2023-10-19T07:24:48;26.57;;;13.73;;
22184;SDS011;11258;52.516;13.318;2023-10-19T07:27:14;28.30;;;13.87;;
22184;SDS011;11258;52.516;13.318;2023-10-19T07:29:44;22.67;;;12.93;;
22184;SDS011;11258;52.516;13.318;2023-10-19T07:32:10;23.03;;;12.63;;
22184;SDS011;11258;52.516;13.318;2023-10-19T07:34:41;23.80;;;12.60;;
22184;SDS011;11258;52.516;13.318;2023-10-19T07:37:09;21.17;;;12.20;;
22184;SDS011;11258;52.516;13.318;2023-10-19T07:39:40;22.53;;;12.73;;
22184;SDS011;11258;52.516;13.318;2023-10-19T07:42:13;25.40;;;13.10;;
22184;SDS011;11258;52.516;13.318;2023-10-19T07:44:39;24.63;;;12.17;;
22184;SDS011;11258;52.516;13.318;2023-10-19T07:47:05;26.57;;;12.90;;
22184;SDS011;11258;52.516;13.318;2023-10-19T07:49:34;23.73;;;12.83;;
22184;SDS011;11258;52.516;13.318;2023-10-19T07:52:06;21.97;;;12.67;;
22184;SDS011;11258;52.516;13.318;2023-10-19T07:54:35;25.50;;;13.33;;
22184;SDS011;11258;52.516;13.318;2023-10-19T07:57:01;28.30;;;13.10;;
22184;SDS011;11258;52.516;13.318;2023-10-19T07:59:34;21.93;;;12.17;;
22184;SDS011;11258;52.516;13.318;2023-10-19T08:02:00;22.17;;;11.87;;
22184;SDS011;11258;52.516;13.318;2023-10-19T08:04:30;24.93;;;13.07;;
22184;SDS011;11258;52.516;13.318;2023-10-19T08:06:59;26.50;;;12.97;;
22184;SDS011;11258;52.516;13.318;2023-10-19T08:09:24;23.40;;;13.23;;
22184;SDS011;11258;52.516;13.318;2023-10-19T08:11:57;20.43;;;11.47;;
22184;SDS011;11258;52.516;13.318;2023-10-19T08:14:24;19.80;;;11.57;;
22184;SDS011;11258;52.516;13.318;2023-10-19T08:16:51;27.90;;;12.47;;
22184;SDS011;11258;52.516;13.318;2023-10-19T08:19:18;20.67;;;11.70;;
22184;SDS011;11258;52.516;13.318;2023-10-19T08:21:43;23.77;;;12.80;;
22184;SDS011;11258;52.516;13.318;2023-10-19T08:24:09;22.10;;;12.60;;
22184;SDS011;11258;52.516;13.318;2023-10-19T08:26:41;19.03;;;11.03;;
22184;SDS011;11258;52.516;13.318;2023-10-19T08:29:07;22.60;;;11.80;;
22184;SDS011;11258;52.516;13.318;2023-10-19T08:31:42;22.90;;;11.63;;
22184;SDS011;11258;52.516;13.318;2023-10-19T08:34:11;23.27;;;11.83;;
22184;SDS011;11258;52.516;13.318;2023-10-19T08:36:38;20.80;;;10.87;;
22184;SDS011;11258;52.516;13.318;2023-10-19T08:39:04;22.47;;;11.63;;
22184;SDS011;11258;52.516;13.318;2023-10-19T08:41:36;20.37;;;12.27;;
22184;SDS011;11258;52.516;13.318;2023-10-19T08:44:05;20.77;;;11.60;;
22184;SDS011;11258;52.516;13.318;2023-10-19T08:46:36;25.43;;;13.40;;
22184;SDS011;11258;52.516;13.318;2023-10-19T08:49:12;20.23;;;11.97;;
22184;SDS011;11258;52.516;13.318;2023-10-19T08:51:44;21.13;;;11.80;;
22184;SDS011;11258;52.516;13.318;2023-10-19T08:54:11;24.23;;;11.97;;
22184;SDS011;11258;52.516;13.318;2023-10-19T08:56:41;19.90;;;11.20;;
22184;SDS011;11258;52.516;13.318;2023-10-19T08:59:10;19.00;;;11.10;;
22184;SDS011;11258;52.516;13.318;2023-10-19T09:01:37;22.43;;;12.00;;
22184;SDS011;11258;52.516;13.318;2023-10-19T09:04:03;25.07;;;11.13;;
22184;SDS011;11258;52.516;13.318;2023-10-19T09:06:35;24.47;;;11.77;;
22184;SDS011;11258;52.516;13.318;2023-10-19T09:09:07;22.47;;;12.37;;
22184;SDS011;11258;52.516;13.318;2023-10-19T09:11:34;20.93;;;11.20;;
22184;SDS011;11258;52.516;13.318;2023-10-19T09:14:00;18.80;;;11.43;;
22184;SDS011;11258;52.516;13.318;2023-10-19T09:16:26;18.87;;;11.10;;
22184;SDS011;11258;52.516;13.318;2023-10-19T09:18:52;24.57;;;12.50;;
22184;SDS011;11258;52.516;13.318;2023-10-19T09:21:18;17.87;;;11.63;;
22184;SDS011;11258;52.516;13.318;2023-10-19T09:23:56;24.20;;;12.57;;
22184;SDS011;11258;52.516;13.318;2023-10-19T09:26:23;21.90;;;11.73;;
22184;SDS011;11258;52.516;13.318;2023-10-19T09:28:50;20.60;;;12.33;;
22184;SDS011;11258;52.516;13.318;2023-10-19T09:31:17;23.30;;;12.70;;
22184;SDS011;11258;52.516;13.318;2023-10-19T09:33:44;23.97;;;11.93;;
22184;SDS011;11258;52.516;13.318;2023-10-19T09:36:10;20.03;;;11.73;;
22184;SDS011;11258;52.516;13.318;2023-10-19T09:41:19;19.83;;;10.67;;
22184;SDS011;11258;52.516;13.318;2023-10-19T09:43:47;17.43;;;10.63;;
22184;SDS011;11258;52.516;13.318;2023-10-19T09:46:20;26.53;;;12.37;;
22184;SDS011;11258;52.516;13.318;2023-10-19T09:48:47;21.27;;;11.27;;
22184;SDS011;11258;52.516;13.318;2023-10-19T09:51:14;20.57;;;11.03;;
22184;SDS011;11258;52.516;13.318;2023-10-19T09:53:41;25.00;;;11.47;;
22184;SDS011;11258;52.516;13.318;2023-10-19T09:56:31;19.17;;;11.13;;
22184;SDS011;11258;52.516;13.318;2023-10-19T09:59:11;20.43;;;10.30;;
22184;SDS011;11258;52.516;13.318;2023-10-19T10:04:31;19.00;;;10.73;;
22184;SDS011;11258;52.516;13.318;2023-10-19T10:06:58;23.93;;;11.27;;
22184;SDS011;11258;52.516;13.318;2023-10-19T10:09:28;17.30;;;10.20;;
22184;SDS011;11258;52.516;13.318;2023-10-19T10:11:55;18.00;;;11.83;;
22184;SDS011;11258;52.516;13.318;2023-10-19T10:14:25;18.73;;;11.43;;
22184;SDS011;11258;52.516;13.318;2023-10-19T10:17:02;25.27;;;11.80;;
22184;SDS011;11258;52.516;13.318;2023-10-19T10:19:30;21.77;;;12.10;;
22184;SDS011;11258;52.516;13.318;2023-10-19T10:22:29;19.60;;;10.87;;
22184;SDS011;11258;52.516;13.318;2023-10-19T10:24:53;22.57;;;11.67;;
22184;SDS011;11258;52.516;13.318;2023-10-19T10:27:20;19.60;;;10.53;;
22184;SDS011;11258;52.516;13.318;2023-10-19T10:29:56;21.33;;;11.43;;
22184;SDS011;11258;52.516;13.318;2023-10-19T10:32:44;25.77;;;12.27;;
22184;SDS011;11258;52.516;13.318;2023-10-19T10:38:09;22.13;;;12.47;;
22184;SDS011;11258;52.516;13.318;2023-10-19T10:40:45;23.77;;;12.37;;
22184;SDS011;11258;52.516;13.318;2023-10-19T10:43:16;22.87;;;12.20;;
22184;SDS011;11258;52.516;13.318;2023-10-19T10:45:42;24.80;;;12.07;;
22184;SDS011;11258;52.516;13.318;2023-10-19T10:48:12;24.50;;;12.10;;
22184;SDS011;11258;52.516;13.318;2023-10-19T10:50:38;23.23;;;12.90;;
22184;SDS011;11258;52.516;13.318;2023-10-19T10:53:04;25.53;;;13.30;;
22184;SDS011;11258;52.516;13.318;2023-10-19T10:55:30;24.53;;;13.37;;
22184;SDS011;11258;52.516;13.318;2023-10-19T10:57:57;25.27;;;13.83;;
22184;SDS011;11258;52.516;13.318;2023-10-19T11:00:24;22.13;;;12.77;;
22184;SDS011;11258;52.516;13.318;2023-10-19T11:03:04;24.27;;;13.90;;
22184;SDS011;11258;52.516;13.318;2023-10-19T11:05:35;21.63;;;12.23;;
22184;SDS011;11258;52.516;13.318;2023-10-19T11:08:03;28.33;;;14.80;;
22184;SDS011;11258;52.516;13.318;2023-10-19T11:10:34;27.27;;;14.37;;
22184;SDS011;11258;52.516;13.318;2023-10-19T11:13:08;27.20;;;13.57;;
22184;SDS011;11258;52.516;13.318;2023-10-19T11:15:38;26.27;;;13.70;;
22184;SDS011;11258;52.516;13.318;2023-10-19T11:18:12;26.87;;;14.00;;
22184;SDS011;11258;52.516;13.318;2023-10-19T11:21:11;22.43;;;13.13;;
22184;SDS011;11258;52.516;13.318;2023-10-19T11:26:11;26.13;;;14.53;;
22184;SDS011;11258;52.516;13.318;2023-10-19T11:28:46;24.30;;;13.77;;
22184;SDS011;11258;52.516;13.318;2023-10-19T11:33:41;28.73;;;13.60;;
22184;SDS011;11258;52.516;13.318;2023-10-19T11:36:08;26.17;;;13.57;;
22184;SDS011;11258;52.516;13.318;2023-10-19T11:38:37;28.50;;;14.67;;
22184;SDS011;11258;52.516;13.318;2023-10-19T11:41:13;25.90;;;15.13;;
22184;SDS011;11258;52.516;13.318;2023-10-19T11:43:40;29.00;;;14.73;;
22184;SDS011;11258;52.516;13.318;2023-10-19T11:46:07;29.17;;;14.73;;
22184;SDS011;11258;52.516;13.318;2023-10-19T11:48:34;29.83;;;15.53;;
22184;SDS011;11258;52.516;13.318;2023-10-19T11:51:01;31.70;;;16.80;;
22184;SDS011;11258;52.516;13.318;2023-10-19T11:53:34;27.97;;;14.50;;
22184;SDS011;11258;52.516;13.318;2023-10-19T11:56:05;28.97;;;15.33;;
22184;SDS011;11258;52.516;13.318;2023-10-19T11:58:35;31.67;;;17.10;;
22184;SDS011;11258;52.516;13.318;2023-10-19T12:01:03;31.70;;;16.03;;
22184;SDS011;11258;52.516;13.318;2023-10-19T12:03:37;27.20;;;14.67;;
22184;SDS011;11258;52.516;13.318;2023-10-19T12:06:05;30.30;;;15.83;;
22184;SDS011;11258;52.516;13.318;2023-10-19T12:08:35;31.87;;;16.20;;
22184;SDS011;11258;52.516;13.318;2023-10-19T12:11:02;29.97;;;15.70;;
22184;SDS011;11258;52.516;13.318;2023-10-19T12:13:40;30.70;;;17.57;;
22184;SDS011;11258;52.516;13.318;2023-10-19T12:16:08;29.17;;;15.80;;
22184;SDS011;11258;52.516;13.318;2023-10-19T12:18:37;26.03;;;15.10;;
22184;SDS011;11258;52.516;13.318;2023-10-19T12:21:03;30.87;;;16.43;;
22184;SDS011;11258;52.516;13.318;2023-10-19T12:23:33;31.47;;;15.87;;
22184;SDS011;11258;52.516;13.318;2023-10-19T12:25:58;32.67;;;16.33;;
22184;SDS011;11258;52.516;13.318;2023-10-19T12:28:28;30.40;;;15.70;;
22184;SDS011;11258;52.516;13.318;2023-10-19T12:30:54;27.93;;;15.50;;
22184;SDS011;11258;52.516;13.318;2023-10-19T12:33:21;28.80;;;15.33;;
22184;SDS011;11258;52.516;13.318;2023-10-19T12:35:46;31.63;;;15.97;;
22184;SDS011;11258;52.516;13.318;2023-10-19T12:38:22;29.97;;;17.20;;
22184;SDS011;11258;52.516;13.318;2023-10-19T12:40:48;30.23;;;17.63;;
22184;SDS011;11258;52.516;13.318;2023-10-19T12:43:19;37.53;;;17.63;;
22184;SDS011;11258;52.516;13.318;2023-10-19T12:45:47;33.00;;;17.47;;
22184;SDS011;11258;52.516;13.318;2023-10-19T12:48:18;35.53;;;17.33;;
22184;SDS011;11258;52.516;13.318;2023-10-19T12:50:45;37.20;;;18.43;;
22184;SDS011;11258;52.516;13.318;2023-10-19T12:53:12;30.30;;;17.80;;
22184;SDS011;11258;52.516;13.318;2023-10-19T12:55:39;33.10;;;18.93;;
22184;SDS011;11258;52.516;13.318;2023-10-19T12:58:04;29.57;;;16.80;;
22184;SDS011;11258;52.516;13.318;2023-10-19T13:00:35;34.23;;;17.03;;
22184;SDS011;11258;52.516;13.318;2023-10-19T13:03:04;37.73;;;19.27;;
22184;SDS011;11258;52.516;13.318;2023-10-19T13:05:33;29.57;;;17.00;;
22184;SDS011;11258;52.516;13.318;2023-10-19T13:08:05;31.80;;;17.33;;
22184;SDS011;11258;52.516;13.318;2023-10-19T13:10:34;33.80;;;16.73;;
22184;SDS011;11258;52.516;13.318;2023-10-19T13:13:02;32.17;;;17.43;;
22184;SDS011;11258;52.516;13.318;2023-10-19T13:15:30;33.13;;;18.50;;
22184;SDS011;11258;52.516;13.318;2023-10-19T13:17:57;29.27;;;17.03;;
22184;SDS011;11258;52.516;13.318;2023-10-19T13:20:26;40.23;;;19.43;;
22184;SDS011;11258;52.516;13.318;2023-10-19T13:22:58;33.80;;;18.00;;
22184;SDS011;11258;52.516;13.318;2023-10-19T13:25:25;31.57;;;17.73;;
22184;SDS011;11258;52.516;13.318;2023-10-19T13:28:09;36.07;;;18.23;;
22184;SDS011;11258;52.516;13.318;2023-10-19T13:30:53;31.60;;;17.47;;
22184;SDS011;11258;52.516;13.318;2023-10-19T13:33:19;37.13;;;18.43;;
22184;SDS011;11258;52.516;13.318;2023-10-19T13:35:49;32.77;;;17.37;;
22184;SDS011;11258;52.516;13.318;2023-10-19T13:38:15;31.17;;;18.17;;
22184;SDS011;11258;52.516;13.318;2023-10-19T13:40:47;31.10;;;17.40;;
22184;SDS011;11258;52.516;13.318;2023-10-19T13:43:15;31.10;;;17.07;;
22184;SDS011;11258;52.516;13.318;2023-10-19T13:45:43;33.53;;;18.40;;
22184;SDS011;11258;52.516;13.318;2023-10-19T13:48:09;38.80;;;16.83;;
22184;SDS011;11258;52.516;13.318;2023-10-19T13:50:40;29.60;;;17.87;;
22184;SDS011;11258;52.516;13.318;2023-10-19T13:53:18;32.43;;;18.67;;
22184;SDS011;11258;52.516;13.318;2023-10-19T13:55:44;36.23;;;18.27;;
22184;SDS011;11258;52.516;13.318;2023-10-19T13:58:10;31.77;;;17.90;;
22184;SDS011;11258;52.516;13.318;2023-10-19T14:00:36;37.97;;;19.63;;
22184;SDS011;11258;52.516;13.318;2023-10-19T14:03:05;32.80;;;17.63;;
22184;SDS011;11258;52.516;13.318;2023-10-19T14:05:44;36.50;;;19.10;;
22184;SDS011;11258;52.516;13.318;2023-10-19T14:08:14;36.33;;;18.63;;
22184;SDS011;11258;52.516;13.318;2023-10-19T14:10:41;35.43;;;18.23;;
22184;SDS011;11258;52.516;13.318;2023-10-19T14:13:07;34.73;;;17.80;;
22184;SDS011;11258;52.516;13.318;2023-10-19T14:15:33;30.83;;;17.57;;
22184;SDS011;11258;52.516;13.318;2023-10-19T14:17:59;31.83;;;17.87;;
22184;SDS011;11258;52.516;13.318;2023-10-19T14:20:25;29.40;;;15.50;;
22184;SDS011;11258;52.516;13.318;2023-10-19T14:22:54;30.27;;;17.07;;
22184;SDS011;11258;52.516;13.318;2023-10-19T14:25:20;36.67;;;18.70;;
22184;SDS011;11258;52.516;13.318;2023-10-19T14:27:48;33.50;;;17.80;;
22184;SDS011;11258;52.516;13.318;2023-10-19T14:30:15;34.60;;;19.00;;
22184;SDS011;11258;52.516;13.318;2023-10-19T14:32:45;32.47;;;16.93;;
22184;SDS011;11258;52.516;13.318;2023-10-19T14:35:15;33.07;;;16.00;;
22184;SDS011;11258;52.516;13.318;2023-10-19T14:37:45;33.23;;;17.83;;
22184;SDS011;11258;52.516;13.318;2023-10-19T14:40:17;33.87;;;16.97;;
22184;SDS011;11258;52.516;13.318;2023-10-19T14:42:45;34.90;;;18.73;;
22184;SDS011;11258;52.516;13.318;2023-10-19T14:45:12;39.93;;;18.93;;
22184;SDS011;11258;52.516;13.318;2023-10-19T14:47:41;29.37;;;17.23;;